sensor_id;sensor_type;location;lat;lon;timestamp;P1;durP1;ratioP1;P2;durP2;ratioP2
61254;SDS011;47128;47.530;8.584;2022-08-04T00:02:37;6.07;;;3.88;;
61254;SDS011;47128;47.530;8.584;2022-08-04T00:08:05;5.43;;;3.88;;
61254;SDS011;47128;47.530;8.584;2022-08-04T00:10:53;6.35;;;4.18;;
61254;SDS011;47128;47.530;8.584;2022-08-04T00:13:22;7.68;;;4.38;;
61254;SDS011;47128;47.530;8.584;2022-08-04T00:15:52;9.35;;;4.28;;
61254;SDS011;47128;47.530;8.584;2022-08-04T00:20:52;8.10;;;3.97;;
61254;SDS011;47128;47.530;8.584;2022-08-04T00:23:21;5.97;;;3.97;;
61254;SDS011;47128;47.530;8.584;2022-08-04T00:25:50;6.53;;;3.83;;
61254;SDS011;47128;47.530;8.584;2022-08-04T00:28:17;7.82;;;3.92;;
61254;SDS011;47128;47.530;8.584;2022-08-04T00:30:44;7.13;;;4.47;;
61254;SDS011;47128;47.530;8.584;2022-08-04T00:33:10;6.80;;;4.25;;
61254;SDS011;47128;47.530;8.584;2022-08-04T00:35:37;8.18;;;4.25;;
61254;SDS011;47128;47.530;8.584;2022-08-04T00:38:03;6.10;;;3.58;;
61254;SDS011;47128;47.530;8.584;2022-08-04T00:57:02;6.55;;;3.95;;
61254;SDS011;47128;47.530;8.584;2022-08-04T01:00:07;5.77;;;3.83;;
61254;SDS011;47128;47.530;8.584;2022-08-04T01:02:36;5.55;;;3.47;;
61254;SDS011;47128;47.530;8.584;2022-08-04T01:08:10;7.18;;;3.67;;
61254;SDS011;47128;47.530;8.584;2022-08-04T01:16:48;7.35;;;3.80;;
61254;SDS011;47128;47.530;8.584;2022-08-04T01:20:00;6.82;;;3.83;;
61254;SDS011;47128;47.530;8.584;2022-08-04T01:29:55;8.20;;;3.88;;
61254;SDS011;47128;47.530;8.584;2022-08-04T01:32:37;5.40;;;3.58;;
61254;SDS011;47128;47.530;8.584;2022-08-04T01:35:11;6.25;;;3.78;;
61254;SDS011;47128;47.530;8.584;2022-08-04T01:37:55;9.32;;;3.95;;
61254;SDS011;47128;47.530;8.584;2022-08-04T01:40:36;7.93;;;4.00;;
61254;SDS011;47128;47.530;8.584;2022-08-04T01:43:02;10.02;;;4.15;;
61254;SDS011;47128;47.530;8.584;2022-08-04T01:45:29;5.50;;;4.18;;
61254;SDS011;47128;47.530;8.584;2022-08-04T01:47:55;5.60;;;3.65;;
61254;SDS011;47128;47.530;8.584;2022-08-04T01:50:22;6.82;;;3.88;;
61254;SDS011;47128;47.530;8.584;2022-08-04T01:52:51;5.63;;;3.83;;
61254;SDS011;47128;47.530;8.584;2022-08-04T01:55:18;5.22;;;3.50;;
61254;SDS011;47128;47.530;8.584;2022-08-04T01:57:46;5.10;;;3.40;;
61254;SDS011;47128;47.530;8.584;2022-08-04T02:00:17;6.07;;;3.67;;
61254;SDS011;47128;47.530;8.584;2022-08-04T02:02:45;4.32;;;3.33;;
61254;SDS011;47128;47.530;8.584;2022-08-04T02:05:14;5.68;;;4.00;;
61254;SDS011;47128;47.530;8.584;2022-08-04T02:10:23;5.20;;;3.78;;
61254;SDS011;47128;47.530;8.584;2022-08-04T02:20:58;6.32;;;3.90;;
61254;SDS011;47128;47.530;8.584;2022-08-04T02:23:28;8.65;;;3.97;;
61254;SDS011;47128;47.530;8.584;2022-08-04T02:26:12;8.20;;;3.88;;
61254;SDS011;47128;47.530;8.584;2022-08-04T02:36:34;4.82;;;4.00;;
61254;SDS011;47128;47.530;8.584;2022-08-04T02:39:08;6.68;;;3.92;;
61254;SDS011;47128;47.530;8.584;2022-08-04T02:41:35;6.50;;;3.80;;
61254;SDS011;47128;47.530;8.584;2022-08-04T02:44:02;8.27;;;4.28;;
61254;SDS011;47128;47.530;8.584;2022-08-04T02:46:30;6.45;;;4.00;;
61254;SDS011;47128;47.530;8.584;2022-08-04T02:49:01;5.68;;;4.03;;
61254;SDS011;47128;47.530;8.584;2022-08-04T02:51:34;4.15;;;3.63;;
61254;SDS011;47128;47.530;8.584;2022-08-04T02:54:05;5.22;;;3.80;;
61254;SDS011;47128;47.530;8.584;2022-08-04T02:56:33;6.75;;;3.55;;
61254;SDS011;47128;47.530;8.584;2022-08-04T02:59:02;5.70;;;3.97;;
61254;SDS011;47128;47.530;8.584;2022-08-04T03:01:29;8.07;;;4.35;;
61254;SDS011;47128;47.530;8.584;2022-08-04T03:03:58;6.05;;;4.18;;
61254;SDS011;47128;47.530;8.584;2022-08-04T03:24:14;5.80;;;3.92;;
61254;SDS011;47128;47.530;8.584;2022-08-04T03:29:44;7.18;;;4.35;;
61254;SDS011;47128;47.530;8.584;2022-08-04T04:00:56;5.65;;;4.20;;
61254;SDS011;47128;47.530;8.584;2022-08-04T04:46:59;6.70;;;3.97;;
61254;SDS011;47128;47.530;8.584;2022-08-04T04:49:39;7.25;;;3.58;;
61254;SDS011;47128;47.530;8.584;2022-08-04T04:54:59;8.55;;;4.05;;
61254;SDS011;47128;47.530;8.584;2022-08-04T04:57:28;6.70;;;4.50;;
61254;SDS011;47128;47.530;8.584;2022-08-04T05:00:01;6.85;;;4.80;;
61254;SDS011;47128;47.530;8.584;2022-08-04T05:05:32;5.68;;;3.67;;
61254;SDS011;47128;47.530;8.584;2022-08-04T05:08:11;6.43;;;3.53;;
61254;SDS011;47128;47.530;8.584;2022-08-04T05:13:39;6.18;;;3.80;;
61254;SDS011;47128;47.530;8.584;2022-08-04T05:22:08;9.70;;;4.25;;
61254;SDS011;47128;47.530;8.584;2022-08-04T05:24:45;10.38;;;4.07;;
61254;SDS011;47128;47.530;8.584;2022-08-04T05:27:16;6.07;;;4.38;;
61254;SDS011;47128;47.530;8.584;2022-08-04T05:29:53;5.55;;;3.90;;
61254;SDS011;47128;47.530;8.584;2022-08-04T05:32:25;7.03;;;5.03;;
61254;SDS011;47128;47.530;8.584;2022-08-04T05:34:56;6.43;;;4.75;;
61254;SDS011;47128;47.530;8.584;2022-08-04T05:37:27;6.95;;;3.78;;
61254;SDS011;47128;47.530;8.584;2022-08-04T05:39:57;4.93;;;3.47;;
61254;SDS011;47128;47.530;8.584;2022-08-04T05:42:26;7.38;;;3.72;;
61254;SDS011;47128;47.530;8.584;2022-08-04T05:44:57;4.63;;;3.53;;
61254;SDS011;47128;47.530;8.584;2022-08-04T05:47:32;6.60;;;3.80;;
61254;SDS011;47128;47.530;8.584;2022-08-04T05:50:02;5.47;;;3.78;;
61254;SDS011;47128;47.530;8.584;2022-08-04T05:52:30;6.45;;;3.95;;
61254;SDS011;47128;47.530;8.584;2022-08-04T05:54:58;6.10;;;3.45;;
61254;SDS011;47128;47.530;8.584;2022-08-04T05:57:25;7.40;;;3.42;;
61254;SDS011;47128;47.530;8.584;2022-08-04T05:59:52;4.38;;;3.50;;
61254;SDS011;47128;47.530;8.584;2022-08-04T06:02:21;5.68;;;3.90;;
61254;SDS011;47128;47.530;8.584;2022-08-04T06:04:48;6.20;;;3.85;;
61254;SDS011;47128;47.530;8.584;2022-08-04T06:07:15;5.13;;;3.30;;
61254;SDS011;47128;47.530;8.584;2022-08-04T06:09:42;8.27;;;3.67;;
61254;SDS011;47128;47.530;8.584;2022-08-04T06:12:08;4.45;;;3.30;;
61254;SDS011;47128;47.530;8.584;2022-08-04T06:14:44;5.93;;;3.75;;
61254;SDS011;47128;47.530;8.584;2022-08-04T06:17:14;4.75;;;3.40;;
61254;SDS011;47128;47.530;8.584;2022-08-04T06:19:46;5.00;;;3.55;;
61254;SDS011;47128;47.530;8.584;2022-08-04T06:22:20;8.73;;;3.78;;
61254;SDS011;47128;47.530;8.584;2022-08-04T06:24:49;6.05;;;3.80;;
61254;SDS011;47128;47.530;8.584;2022-08-04T06:27:17;6.25;;;3.83;;
61254;SDS011;47128;47.530;8.584;2022-08-04T06:30:01;8.40;;;3.97;;
61254;SDS011;47128;47.530;8.584;2022-08-04T06:32:29;4.00;;;3.50;;
61254;SDS011;47128;47.530;8.584;2022-08-04T06:35:02;5.13;;;3.60;;
61254;SDS011;47128;47.530;8.584;2022-08-04T06:37:29;7.35;;;3.20;;
61254;SDS011;47128;47.530;8.584;2022-08-04T06:39:56;6.47;;;3.58;;
61254;SDS011;47128;47.530;8.584;2022-08-04T06:44:54;5.10;;;3.55;;
61254;SDS011;47128;47.530;8.584;2022-08-04T06:47:24;4.22;;;3.45;;
61254;SDS011;47128;47.530;8.584;2022-08-04T06:49:52;7.72;;;3.38;;
61254;SDS011;47128;47.530;8.584;2022-08-04T06:52:22;5.88;;;3.70;;
61254;SDS011;47128;47.530;8.584;2022-08-04T06:54:54;5.07;;;3.17;;
61254;SDS011;47128;47.530;8.584;2022-08-04T06:57:23;3.33;;;3.08;;
61254;SDS011;47128;47.530;8.584;2022-08-04T07:00:00;4.20;;;3.22;;
61254;SDS011;47128;47.530;8.584;2022-08-04T07:02:30;5.30;;;3.58;;
61254;SDS011;47128;47.530;8.584;2022-08-04T07:05:01;5.70;;;3.50;;
61254;SDS011;47128;47.530;8.584;2022-08-04T07:07:29;9.75;;;3.70;;
61254;SDS011;47128;47.530;8.584;2022-08-04T07:10:03;4.13;;;2.90;;
61254;SDS011;47128;47.530;8.584;2022-08-04T07:12:30;3.20;;;2.90;;
61254;SDS011;47128;47.530;8.584;2022-08-04T07:14:57;4.75;;;3.28;;
61254;SDS011;47128;47.530;8.584;2022-08-04T07:17:25;7.30;;;3.20;;
61254;SDS011;47128;47.530;8.584;2022-08-04T07:19:58;6.20;;;3.42;;
61254;SDS011;47128;47.530;8.584;2022-08-04T07:22:25;2.83;;;2.63;;
61254;SDS011;47128;47.530;8.584;2022-08-04T07:24:56;4.55;;;3.20;;
61254;SDS011;47128;47.530;8.584;2022-08-04T07:27:23;3.95;;;2.83;;
61254;SDS011;47128;47.530;8.584;2022-08-04T07:29:51;4.32;;;3.50;;
61254;SDS011;47128;47.530;8.584;2022-08-04T07:32:18;5.68;;;3.47;;
61254;SDS011;47128;47.530;8.584;2022-08-04T07:34:55;5.63;;;3.58;;
61254;SDS011;47128;47.530;8.584;2022-08-04T07:37:22;4.93;;;3.50;;
61254;SDS011;47128;47.530;8.584;2022-08-04T07:39:53;4.68;;;3.60;;
61254;SDS011;47128;47.530;8.584;2022-08-04T07:42:27;8.07;;;3.40;;
61254;SDS011;47128;47.530;8.584;2022-08-04T07:44:53;3.83;;;3.38;;
61254;SDS011;47128;47.530;8.584;2022-08-04T07:47:18;6.50;;;4.35;;
61254;SDS011;47128;47.530;8.584;2022-08-04T07:49:44;4.35;;;3.10;;
61254;SDS011;47128;47.530;8.584;2022-08-04T07:52:10;4.22;;;3.22;;
61254;SDS011;47128;47.530;8.584;2022-08-04T07:54:36;4.18;;;3.30;;
61254;SDS011;47128;47.530;8.584;2022-08-04T07:57:03;5.38;;;3.72;;
61254;SDS011;47128;47.530;8.584;2022-08-04T07:59:29;6.30;;;3.70;;
61254;SDS011;47128;47.530;8.584;2022-08-04T08:02:04;4.32;;;3.25;;
61254;SDS011;47128;47.530;8.584;2022-08-04T08:04:33;6.10;;;3.70;;
61254;SDS011;47128;47.530;8.584;2022-08-04T08:07:01;4.75;;;3.30;;
61254;SDS011;47128;47.530;8.584;2022-08-04T08:09:26;5.57;;;3.65;;
61254;SDS011;47128;47.530;8.584;2022-08-04T08:12:00;4.80;;;3.83;;
61254;SDS011;47128;47.530;8.584;2022-08-04T08:14:26;6.22;;;4.22;;
61254;SDS011;47128;47.530;8.584;2022-08-04T08:16:55;4.55;;;3.80;;
61254;SDS011;47128;47.530;8.584;2022-08-04T08:19:22;6.13;;;4.25;;
61254;SDS011;47128;47.530;8.584;2022-08-04T08:21:47;6.70;;;3.65;;
61254;SDS011;47128;47.530;8.584;2022-08-04T08:24:15;7.60;;;4.38;;
61254;SDS011;47128;47.530;8.584;2022-08-04T08:26:46;6.82;;;3.58;;
61254;SDS011;47128;47.530;8.584;2022-08-04T08:29:13;6.53;;;3.80;;
61254;SDS011;47128;47.530;8.584;2022-08-04T08:31:40;7.72;;;3.80;;
61254;SDS011;47128;47.530;8.584;2022-08-04T08:34:07;10.10;;;3.88;;
61254;SDS011;47128;47.530;8.584;2022-08-04T08:36:48;9.98;;;3.88;;
61254;SDS011;47128;47.530;8.584;2022-08-04T08:40:07;7.55;;;3.75;;
61254;SDS011;47128;47.530;8.584;2022-08-04T08:57:30;5.00;;;3.58;;
61254;SDS011;47128;47.530;8.584;2022-08-04T09:00:08;4.13;;;3.70;;
61254;SDS011;47128;47.530;8.584;2022-08-04T09:08:18;6.72;;;3.30;;
61254;SDS011;47128;47.530;8.584;2022-08-04T09:11:27;7.05;;;3.55;;
61254;SDS011;47128;47.530;8.584;2022-08-04T09:14:19;5.38;;;3.38;;
61254;SDS011;47128;47.530;8.584;2022-08-04T09:17:04;5.60;;;3.83;;
61254;SDS011;47128;47.530;8.584;2022-08-04T09:19:43;7.40;;;3.40;;
61254;SDS011;47128;47.530;8.584;2022-08-04T09:24:58;4.03;;;2.88;;
61254;SDS011;47128;47.530;8.584;2022-08-04T09:30:11;4.53;;;3.20;;
61254;SDS011;47128;47.530;8.584;2022-08-04T09:38:19;7.60;;;3.30;;
61254;SDS011;47128;47.530;8.584;2022-08-04T09:46:56;7.50;;;3.17;;
61254;SDS011;47128;47.530;8.584;2022-08-04T10:01:07;7.72;;;3.17;;
61254;SDS011;47128;47.530;8.584;2022-08-04T10:03:37;5.05;;;3.17;;
61254;SDS011;47128;47.530;8.584;2022-08-04T10:15:09;4.05;;;2.70;;
61254;SDS011;47128;47.530;8.584;2022-08-04T10:23:37;4.35;;;2.83;;
61254;SDS011;47128;47.530;8.584;2022-08-04T10:26:30;4.00;;;2.70;;
61254;SDS011;47128;47.530;8.584;2022-08-04T10:29:28;3.83;;;2.50;;
61254;SDS011;47128;47.530;8.584;2022-08-04T10:37:28;2.55;;;2.15;;
61254;SDS011;47128;47.530;8.584;2022-08-04T10:40:11;3.97;;;2.50;;
61254;SDS011;47128;47.530;8.584;2022-08-04T10:45:38;2.60;;;2.40;;
61254;SDS011;47128;47.530;8.584;2022-08-04T10:48:41;6.78;;;2.60;;
61254;SDS011;47128;47.530;8.584;2022-08-04T10:51:34;3.45;;;2.40;;
61254;SDS011;47128;47.530;8.584;2022-08-04T10:54:07;5.00;;;2.47;;
61254;SDS011;47128;47.530;8.584;2022-08-04T10:56:40;2.95;;;2.22;;
61254;SDS011;47128;47.530;8.584;2022-08-04T10:59:11;4.10;;;2.10;;
61254;SDS011;47128;47.530;8.584;2022-08-04T11:01:51;4.28;;;2.20;;
61254;SDS011;47128;47.530;8.584;2022-08-04T11:04:28;3.25;;;2.08;;
61254;SDS011;47128;47.530;8.584;2022-08-04T11:06:58;3.38;;;2.20;;
61254;SDS011;47128;47.530;8.584;2022-08-04T11:09:25;4.00;;;1.95;;
61254;SDS011;47128;47.530;8.584;2022-08-04T11:11:57;2.80;;;2.20;;
61254;SDS011;47128;47.530;8.584;2022-08-04T11:14:57;3.30;;;2.22;;
61254;SDS011;47128;47.530;8.584;2022-08-04T11:17:30;4.93;;;1.90;;
61254;SDS011;47128;47.530;8.584;2022-08-04T11:23:12;3.08;;;2.30;;
61254;SDS011;47128;47.530;8.584;2022-08-04T11:31:04;2.45;;;1.90;;
61254;SDS011;47128;47.530;8.584;2022-08-04T11:39:35;1.83;;;1.63;;
61254;SDS011;47128;47.530;8.584;2022-08-04T11:42:15;2.65;;;1.67;;
61254;SDS011;47128;47.530;8.584;2022-08-04T11:45:06;2.25;;;1.98;;
61254;SDS011;47128;47.530;8.584;2022-08-04T11:47:57;4.00;;;1.70;;
61254;SDS011;47128;47.530;8.584;2022-08-04T11:50:44;2.85;;;1.58;;
61254;SDS011;47128;47.530;8.584;2022-08-04T11:53:17;3.00;;;1.90;;
61254;SDS011;47128;47.530;8.584;2022-08-04T11:55:49;5.13;;;2.15;;
61254;SDS011;47128;47.530;8.584;2022-08-04T11:58:20;4.10;;;2.00;;
61254;SDS011;47128;47.530;8.584;2022-08-04T12:06:47;3.88;;;2.08;;
61254;SDS011;47128;47.530;8.584;2022-08-04T12:09:35;4.20;;;2.28;;
61254;SDS011;47128;47.530;8.584;2022-08-04T12:18:59;3.67;;;2.22;;
61254;SDS011;47128;47.530;8.584;2022-08-04T12:21:38;2.42;;;2.00;;
61254;SDS011;47128;47.530;8.584;2022-08-04T12:24:15;10.95;;;2.10;;
61254;SDS011;47128;47.530;8.584;2022-08-04T12:27:10;5.18;;;2.20;;
61254;SDS011;47128;47.530;8.584;2022-08-04T12:29:45;5.40;;;2.22;;
61254;SDS011;47128;47.530;8.584;2022-08-04T12:32:20;8.25;;;2.10;;
61254;SDS011;47128;47.530;8.584;2022-08-04T12:35:19;3.22;;;1.75;;
61254;SDS011;47128;47.530;8.584;2022-08-04T12:37:50;2.60;;;1.80;;
61254;SDS011;47128;47.530;8.584;2022-08-04T12:40:32;4.28;;;2.08;;
61254;SDS011;47128;47.530;8.584;2022-08-04T12:43:53;3.70;;;1.90;;
61254;SDS011;47128;47.530;8.584;2022-08-04T12:46:12;2.80;;;1.73;;
61254;SDS011;47128;47.530;8.584;2022-08-04T12:48:47;2.38;;;2.08;;
61254;SDS011;47128;47.530;8.584;2022-08-04T12:51:14;3.47;;;2.10;;
61254;SDS011;47128;47.530;8.584;2022-08-04T12:53:42;2.13;;;2.03;;
61254;SDS011;47128;47.530;8.584;2022-08-04T12:56:09;3.78;;;2.15;;
61254;SDS011;47128;47.530;8.584;2022-08-04T12:58:44;2.72;;;1.95;;
61254;SDS011;47128;47.530;8.584;2022-08-04T13:01:21;2.33;;;1.85;;
61254;SDS011;47128;47.530;8.584;2022-08-04T13:06:40;2.55;;;2.03;;
61254;SDS011;47128;47.530;8.584;2022-08-04T13:09:13;2.30;;;2.10;;
61254;SDS011;47128;47.530;8.584;2022-08-04T13:11:43;2.17;;;1.98;;
61254;SDS011;47128;47.530;8.584;2022-08-04T13:14:14;3.75;;;2.00;;
61254;SDS011;47128;47.530;8.584;2022-08-04T13:16:43;4.72;;;2.17;;
61254;SDS011;47128;47.530;8.584;2022-08-04T13:19:09;3.13;;;2.13;;
61254;SDS011;47128;47.530;8.584;2022-08-04T13:21:43;2.25;;;2.00;;
61254;SDS011;47128;47.530;8.584;2022-08-04T13:24:15;3.65;;;2.08;;
61254;SDS011;47128;47.530;8.584;2022-08-04T13:27:04;2.13;;;1.90;;
61254;SDS011;47128;47.530;8.584;2022-08-04T13:29:41;2.83;;;2.15;;
61254;SDS011;47128;47.530;8.584;2022-08-04T13:32:22;2.95;;;1.98;;
61254;SDS011;47128;47.530;8.584;2022-08-04T13:34:52;4.63;;;2.10;;
61254;SDS011;47128;47.530;8.584;2022-08-04T13:37:20;3.72;;;2.13;;
61254;SDS011;47128;47.530;8.584;2022-08-04T13:39:50;5.13;;;2.70;;
61254;SDS011;47128;47.530;8.584;2022-08-04T13:42:16;2.80;;;2.03;;
61254;SDS011;47128;47.530;8.584;2022-08-04T13:44:45;3.05;;;2.83;;
61254;SDS011;47128;47.530;8.584;2022-08-04T13:47:14;7.10;;;3.75;;
61254;SDS011;47128;47.530;8.584;2022-08-04T13:52:54;2.65;;;1.90;;
61254;SDS011;47128;47.530;8.584;2022-08-04T13:55:27;1.85;;;1.73;;
61254;SDS011;47128;47.530;8.584;2022-08-04T14:03:22;3.35;;;1.80;;
61254;SDS011;47128;47.530;8.584;2022-08-04T14:06:17;3.83;;;2.00;;
61254;SDS011;47128;47.530;8.584;2022-08-04T14:11:18;5.05;;;2.20;;
61254;SDS011;47128;47.530;8.584;2022-08-04T14:13:47;3.75;;;2.00;;
61254;SDS011;47128;47.530;8.584;2022-08-04T14:16:20;3.42;;;1.65;;
61254;SDS011;47128;47.530;8.584;2022-08-04T14:19:02;1.70;;;1.60;;
61254;SDS011;47128;47.530;8.584;2022-08-04T14:21:34;2.13;;;1.92;;
61254;SDS011;47128;47.530;8.584;2022-08-04T14:24:00;3.55;;;1.70;;
61254;SDS011;47128;47.530;8.584;2022-08-04T14:26:28;3.95;;;1.90;;
61254;SDS011;47128;47.530;8.584;2022-08-04T14:29:05;4.80;;;2.03;;
61254;SDS011;47128;47.530;8.584;2022-08-04T14:31:32;1.90;;;1.80;;
61254;SDS011;47128;47.530;8.584;2022-08-04T14:33:58;2.75;;;1.85;;
61254;SDS011;47128;47.530;8.584;2022-08-04T14:36:24;4.03;;;2.15;;
61254;SDS011;47128;47.530;8.584;2022-08-04T14:38:57;4.30;;;1.75;;
61254;SDS011;47128;47.530;8.584;2022-08-04T14:41:24;4.30;;;3.63;;
61254;SDS011;47128;47.530;8.584;2022-08-04T14:43:58;4.70;;;3.17;;
61254;SDS011;47128;47.530;8.584;2022-08-04T14:46:26;8.60;;;4.57;;
61254;SDS011;47128;47.530;8.584;2022-08-04T14:49:11;3.85;;;2.10;;
61254;SDS011;47128;47.530;8.584;2022-08-04T14:51:39;3.58;;;1.80;;
61254;SDS011;47128;47.530;8.584;2022-08-04T14:54:07;2.20;;;1.92;;
61254;SDS011;47128;47.530;8.584;2022-08-04T14:56:34;2.08;;;1.65;;
61254;SDS011;47128;47.530;8.584;2022-08-04T14:59:02;2.00;;;1.70;;
61254;SDS011;47128;47.530;8.584;2022-08-04T15:01:33;5.15;;;2.10;;
61254;SDS011;47128;47.530;8.584;2022-08-04T15:04:00;3.40;;;1.90;;
61254;SDS011;47128;47.530;8.584;2022-08-04T15:06:27;2.53;;;1.85;;
61254;SDS011;47128;47.530;8.584;2022-08-04T15:08:56;2.85;;;1.70;;
61254;SDS011;47128;47.530;8.584;2022-08-04T15:11:27;2.65;;;1.73;;
61254;SDS011;47128;47.530;8.584;2022-08-04T15:13:54;4.43;;;1.80;;
61254;SDS011;47128;47.530;8.584;2022-08-04T15:16:21;2.25;;;1.88;;
61254;SDS011;47128;47.530;8.584;2022-08-04T15:18:47;2.60;;;2.13;;
61254;SDS011;47128;47.530;8.584;2022-08-04T15:21:14;2.20;;;1.80;;
61254;SDS011;47128;47.530;8.584;2022-08-04T15:23:40;2.53;;;1.60;;
61254;SDS011;47128;47.530;8.584;2022-08-04T15:26:08;2.78;;;2.58;;
61254;SDS011;47128;47.530;8.584;2022-08-04T15:28:39;1.80;;;1.70;;
61254;SDS011;47128;47.530;8.584;2022-08-04T15:31:08;1.88;;;1.73;;
61254;SDS011;47128;47.530;8.584;2022-08-04T15:33:38;1.50;;;1.40;;
61254;SDS011;47128;47.530;8.584;2022-08-04T15:36:20;2.00;;;1.75;;
61254;SDS011;47128;47.530;8.584;2022-08-04T15:39:00;1.92;;;1.60;;
61254;SDS011;47128;47.530;8.584;2022-08-04T15:49:29;3.28;;;1.88;;
61254;SDS011;47128;47.530;8.584;2022-08-04T15:51:58;2.17;;;1.77;;
61254;SDS011;47128;47.530;8.584;2022-08-04T15:54:28;3.25;;;1.70;;
61254;SDS011;47128;47.530;8.584;2022-08-04T15:56:54;2.90;;;1.85;;
61254;SDS011;47128;47.530;8.584;2022-08-04T16:07:54;2.05;;;1.67;;
61254;SDS011;47128;47.530;8.584;2022-08-04T16:15:45;2.70;;;1.90;;
61254;SDS011;47128;47.530;8.584;2022-08-04T16:20:58;14.07;;;5.50;;
61254;SDS011;47128;47.530;8.584;2022-08-04T16:26:15;2.97;;;1.67;;
61254;SDS011;47128;47.530;8.584;2022-08-04T16:34:45;3.28;;;2.03;;
61254;SDS011;47128;47.530;8.584;2022-08-04T16:37:18;4.57;;;1.70;;
61254;SDS011;47128;47.530;8.584;2022-08-04T16:39:44;3.70;;;1.98;;
61254;SDS011;47128;47.530;8.584;2022-08-04T16:45:09;3.83;;;1.75;;
61254;SDS011;47128;47.530;8.584;2022-08-04T16:50:14;3.60;;;1.90;;
61254;SDS011;47128;47.530;8.584;2022-08-04T16:53:02;2.88;;;1.42;;
61254;SDS011;47128;47.530;8.584;2022-08-04T16:57:59;4.00;;;2.05;;
61254;SDS011;47128;47.530;8.584;2022-08-04T17:00:32;1.95;;;1.58;;
61254;SDS011;47128;47.530;8.584;2022-08-04T17:03:02;3.22;;;1.67;;
61254;SDS011;47128;47.530;8.584;2022-08-04T17:05:29;3.38;;;1.70;;
61254;SDS011;47128;47.530;8.584;2022-08-04T17:07:56;2.50;;;1.77;;
61254;SDS011;47128;47.530;8.584;2022-08-04T17:10:39;2.80;;;1.80;;
61254;SDS011;47128;47.530;8.584;2022-08-04T17:15:49;3.00;;;1.88;;
61254;SDS011;47128;47.530;8.584;2022-08-04T17:18:22;2.42;;;1.70;;
61254;SDS011;47128;47.530;8.584;2022-08-04T17:20:53;3.88;;;2.30;;
61254;SDS011;47128;47.530;8.584;2022-08-04T17:23:21;4.55;;;2.00;;
61254;SDS011;47128;47.530;8.584;2022-08-04T17:25:55;3.60;;;2.00;;
61254;SDS011;47128;47.530;8.584;2022-08-04T17:28:21;3.15;;;2.05;;
61254;SDS011;47128;47.530;8.584;2022-08-04T17:30:48;2.50;;;2.17;;
61254;SDS011;47128;47.530;8.584;2022-08-04T17:33:15;4.75;;;2.13;;
61254;SDS011;47128;47.530;8.584;2022-08-04T17:35:42;3.17;;;2.00;;
61254;SDS011;47128;47.530;8.584;2022-08-04T17:38:09;3.08;;;2.13;;
61254;SDS011;47128;47.530;8.584;2022-08-04T17:40:48;3.63;;;2.00;;
61254;SDS011;47128;47.530;8.584;2022-08-04T17:43:15;5.47;;;1.92;;
61254;SDS011;47128;47.530;8.584;2022-08-04T17:45:41;2.25;;;1.88;;
61254;SDS011;47128;47.530;8.584;2022-08-04T17:48:07;7.60;;;2.20;;
61254;SDS011;47128;47.530;8.584;2022-08-04T17:50:42;2.95;;;2.33;;
61254;SDS011;47128;47.530;8.584;2022-08-04T17:53:08;4.75;;;3.78;;
61254;SDS011;47128;47.530;8.584;2022-08-04T17:55:37;14.20;;;9.10;;
61254;SDS011;47128;47.530;8.584;2022-08-04T18:00:39;7.45;;;4.50;;
61254;SDS011;47128;47.530;8.584;2022-08-04T18:03:05;6.18;;;2.90;;
61254;SDS011;47128;47.530;8.584;2022-08-04T18:05:31;4.40;;;2.70;;
61254;SDS011;47128;47.530;8.584;2022-08-04T18:08:00;3.95;;;2.40;;
61254;SDS011;47128;47.530;8.584;2022-08-04T18:10:37;7.28;;;3.13;;
61254;SDS011;47128;47.530;8.584;2022-08-04T18:13:05;6.05;;;2.65;;
61254;SDS011;47128;47.530;8.584;2022-08-04T18:15:32;5.60;;;2.42;;
61254;SDS011;47128;47.530;8.584;2022-08-04T18:17:58;3.83;;;2.45;;
61254;SDS011;47128;47.530;8.584;2022-08-04T18:20:24;4.32;;;2.17;;
61254;SDS011;47128;47.530;8.584;2022-08-04T18:22:52;3.17;;;2.70;;
61254;SDS011;47128;47.530;8.584;2022-08-04T18:25:18;3.58;;;2.47;;
61254;SDS011;47128;47.530;8.584;2022-08-04T18:27:54;7.38;;;2.50;;
61254;SDS011;47128;47.530;8.584;2022-08-04T18:30:21;9.40;;;3.15;;
61254;SDS011;47128;47.530;8.584;2022-08-04T18:32:49;8.30;;;3.25;;
61254;SDS011;47128;47.530;8.584;2022-08-04T18:35:16;9.45;;;2.92;;
61254;SDS011;47128;47.530;8.584;2022-08-04T18:37:42;4.03;;;2.78;;
61254;SDS011;47128;47.530;8.584;2022-08-04T18:40:08;4.78;;;2.88;;
61254;SDS011;47128;47.530;8.584;2022-08-04T18:42:37;3.83;;;2.65;;
61254;SDS011;47128;47.530;8.584;2022-08-04T18:45:03;8.98;;;3.00;;
61254;SDS011;47128;47.530;8.584;2022-08-04T18:47:29;5.45;;;2.95;;
61254;SDS011;47128;47.530;8.584;2022-08-04T18:49:55;6.55;;;2.70;;
61254;SDS011;47128;47.530;8.584;2022-08-04T18:52:22;6.25;;;2.90;;
61254;SDS011;47128;47.530;8.584;2022-08-04T18:54:48;10.57;;;6.90;;
61254;SDS011;47128;47.530;8.584;2022-08-04T18:57:17;4.63;;;2.80;;
61254;SDS011;47128;47.530;8.584;2022-08-04T18:59:44;5.15;;;2.95;;
61254;SDS011;47128;47.530;8.584;2022-08-04T19:02:10;7.05;;;3.70;;
61254;SDS011;47128;47.530;8.584;2022-08-04T19:04:36;4.78;;;2.90;;
61254;SDS011;47128;47.530;8.584;2022-08-04T19:07:02;5.70;;;3.53;;
61254;SDS011;47128;47.530;8.584;2022-08-04T19:09:28;5.45;;;3.13;;
61254;SDS011;47128;47.530;8.584;2022-08-04T19:11:54;8.43;;;3.10;;
61254;SDS011;47128;47.530;8.584;2022-08-04T19:14:21;10.95;;;3.20;;
61254;SDS011;47128;47.530;8.584;2022-08-04T19:16:46;6.05;;;3.20;;
61254;SDS011;47128;47.530;8.584;2022-08-04T19:19:13;4.68;;;3.08;;
61254;SDS011;47128;47.530;8.584;2022-08-04T19:21:39;10.20;;;3.10;;
61254;SDS011;47128;47.530;8.584;2022-08-04T19:24:05;5.80;;;3.38;;
61254;SDS011;47128;47.530;8.584;2022-08-04T19:26:31;3.47;;;2.85;;
61254;SDS011;47128;47.530;8.584;2022-08-04T19:28:57;4.97;;;2.58;;
61254;SDS011;47128;47.530;8.584;2022-08-04T19:31:23;6.38;;;3.00;;
61254;SDS011;47128;47.530;8.584;2022-08-04T19:33:49;5.70;;;3.17;;
61254;SDS011;47128;47.530;8.584;2022-08-04T19:36:14;3.95;;;3.10;;
61254;SDS011;47128;47.530;8.584;2022-08-04T19:38:40;8.20;;;3.22;;
61254;SDS011;47128;47.530;8.584;2022-08-04T19:41:07;10.80;;;3.50;;
61254;SDS011;47128;47.530;8.584;2022-08-04T19:43:33;7.68;;;2.97;;
61254;SDS011;47128;47.530;8.584;2022-08-04T19:45:59;3.95;;;2.80;;
61254;SDS011;47128;47.530;8.584;2022-08-04T19:48:25;6.60;;;2.90;;
61254;SDS011;47128;47.530;8.584;2022-08-04T19:50:51;5.88;;;3.38;;
61254;SDS011;47128;47.530;8.584;2022-08-04T19:53:17;6.03;;;3.15;;
61254;SDS011;47128;47.530;8.584;2022-08-04T19:55:43;5.05;;;3.35;;
61254;SDS011;47128;47.530;8.584;2022-08-04T19:58:09;6.85;;;3.25;;
61254;SDS011;47128;47.530;8.584;2022-08-04T20:00:35;6.65;;;3.33;;
61254;SDS011;47128;47.530;8.584;2022-08-04T20:03:02;10.55;;;4.22;;
61254;SDS011;47128;47.530;8.584;2022-08-04T20:05:29;11.30;;;4.05;;
61254;SDS011;47128;47.530;8.584;2022-08-04T20:07:55;6.97;;;4.28;;
61254;SDS011;47128;47.530;8.584;2022-08-04T20:10:21;6.28;;;4.03;;
61254;SDS011;47128;47.530;8.584;2022-08-04T20:12:47;7.20;;;4.60;;
61254;SDS011;47128;47.530;8.584;2022-08-04T20:15:12;7.07;;;4.63;;
61254;SDS011;47128;47.530;8.584;2022-08-04T20:17:38;6.47;;;4.65;;
61254;SDS011;47128;47.530;8.584;2022-08-04T20:20:04;7.65;;;4.60;;
61254;SDS011;47128;47.530;8.584;2022-08-04T20:22:30;8.50;;;4.50;;
61254;SDS011;47128;47.530;8.584;2022-08-04T20:24:56;8.63;;;4.55;;
61254;SDS011;47128;47.530;8.584;2022-08-04T20:27:22;11.73;;;5.22;;
61254;SDS011;47128;47.530;8.584;2022-08-04T20:29:48;6.35;;;4.70;;
61254;SDS011;47128;47.530;8.584;2022-08-04T20:32:16;9.15;;;4.82;;
61254;SDS011;47128;47.530;8.584;2022-08-04T20:34:49;8.65;;;5.00;;
61254;SDS011;47128;47.530;8.584;2022-08-04T20:37:17;8.88;;;4.70;;
61254;SDS011;47128;47.530;8.584;2022-08-04T20:39:43;7.78;;;4.22;;
61254;SDS011;47128;47.530;8.584;2022-08-04T20:42:08;6.47;;;4.85;;